Time;durP1;ratioP1;P1;durP2;ratioP2;P2;SDS_P1;SDS_P2;PMS_P1;PMS_P2;Temp;Humidity;BMP_temperature;BMP_pressure;BME280_temperature;BME280_humidity;BME280_pressure;Samples;Min_cycle;Max_cycle;Signal;HPM_P1;HPM_P2
2022/11/13 00:02:06;;;;;;;23.33;11.77;;;;;;;9.06;85.66;101503.53;4992659;28;20397;-79
2022/11/13 00:04:31;;;;;;;15.40;11.82;;;;;;;8.97;85.78;101488.56;4992155;28;20404;-80
2022/11/13 00:06:56;;;;;;;19.63;11.20;;;;;;;8.97;85.61;101488.56;5000724;28;20399;-80
2022/11/13 00:09:21;;;;;;;15.83;11.50;;;;;;;8.96;86.00;101486.94;4997098;28;20406;-79
2022/11/13 00:11:47;;;;;;;17.60;11.50;;;;;;;8.99;85.80;101481.91;4988651;28;20445;-79
2022/11/13 00:14:12;;;;;;;14.50;10.57;;;;;;;8.99;85.75;101487.31;4990061;28;20421;-79
2022/11/13 00:16:37;;;;;;;24.03;11.60;;;;;;;8.98;85.86;101485.69;4981821;28;20403;-80
2022/11/13 00:19:02;;;;;;;15.47;10.83;;;;;;;8.97;85.77;101475.88;4989960;28;20410;-79
2022/11/13 00:21:28;;;;;;;14.27;10.93;;;;;;;8.96;85.90;101484.22;4987898;28;20482;-80
2022/11/13 00:23:54;;;;;;;18.97;11.33;;;;;;;8.93;85.77;101485.44;4986713;28;20465;-79
2022/11/13 00:26:26;;;;;;;19.10;11.52;;;;;;;8.89;85.77;101478.81;4990724;28;20421;-79
2022/11/13 00:28:53;;;;;;;15.73;11.00;;;;;;;8.85;86.38;101480.28;4995425;28;20411;-79
2022/11/13 00:31:18;;;;;;;21.15;11.48;;;;;;;8.86;86.21;101471.94;4996185;28;20448;-79
2022/11/13 00:33:44;;;;;;;14.37;11.67;;;;;;;8.87;86.31;101472.78;4991096;28;20438;-79
2022/11/13 00:36:14;;;;;;;16.80;11.20;;;;;;;8.90;86.19;101468.81;4994358;28;20453;-79
2022/11/13 00:38:39;;;;;;;29.50;12.13;;;;;;;8.92;85.52;101467.59;4994865;28;20457;-79
2022/11/13 00:41:04;;;;;;;25.30;11.33;;;;;;;8.91;85.48;101459.69;4982929;28;20416;-79
2022/11/13 00:43:30;;;;;;;15.87;11.57;;;;;;;8.91;85.89;101457.81;4989271;28;20454;-79
2022/11/13 00:45:55;;;;;;;15.77;11.27;;;;;;;8.91;86.00;101457.81;4978547;28;20419;-79
2022/11/13 00:48:20;;;;;;;22.58;11.50;;;;;;;8.89;85.84;101454.50;4982237;28;20799;-80
2022/11/13 00:50:46;;;;;;;17.27;10.63;;;;;;;8.88;85.62;101450.13;4993378;28;20427;-79
2022/11/13 00:53:12;;;;;;;13.45;11.23;;;;;;;8.90;86.01;101450.72;4983510;28;20445;-79
2022/11/13 00:55:37;;;;;;;17.13;10.53;;;;;;;8.92;85.79;101445.13;4995255;28;20399;-79
2022/11/13 00:58:03;;;;;;;15.37;11.23;;;;;;;8.94;85.55;101441.16;4990721;28;20400;-79
2022/11/13 01:00:29;;;;;;;20.38;10.95;;;;;;;8.95;85.68;101442.00;4988317;28;20415;-79
2022/11/13 01:02:57;;;;;;;23.50;11.25;;;;;;;8.88;85.36;101427.66;4997354;28;20408;-79
2022/11/13 01:05:22;;;;;;;17.27;11.27;;;;;;;8.84;86.01;101438.91;4996970;28;20414;-79
2022/11/13 01:07:47;;;;;;;38.73;12.23;;;;;;;8.86;85.82;101436.81;4997835;28;20735;-79
2022/11/13 01:10:13;;;;;;;22.60;11.53;;;;;;;8.88;85.96;101435.78;4995614;28;20506;-79
2022/11/13 01:12:38;;;;;;;14.57;10.57;;;;;;;8.90;86.07;101441.78;4987683;28;20402;-79
2022/11/13 01:15:04;;;;;;;14.13;11.20;;;;;;;8.88;85.75;101431.19;4980805;28;20410;-79
2022/11/13 01:17:29;;;;;;;14.10;11.20;;;;;;;8.86;86.03;101430.56;4984121;28;20412;-78
2022/11/13 01:19:54;;;;;;;24.77;10.70;;;;;;;8.88;85.91;101433.06;4989449;28;20433;-79
2022/11/13 01:22:20;;;;;;;16.70;10.90;;;;;;;8.89;85.99;101429.34;5003346;28;20447;-79
2022/11/13 01:24:45;;;;;;;16.27;10.73;;;;;;;8.86;86.12;101431.41;4989741;28;20419;-79
2022/11/13 01:27:12;;;;;;;23.60;10.73;;;;;;;8.89;86.14;101427.47;4982700;28;20400;-79
2022/11/13 01:29:37;;;;;;;18.10;10.52;;;;;;;8.88;85.71;101433.91;4995132;28;20461;-79
2022/11/13 01:32:03;;;;;;;25.60;10.48;;;;;;;8.87;85.37;101432.22;4999734;28;20949;-79
2022/11/13 01:34:28;;;;;;;11.60;10.00;;;;;;;8.87;85.67;101429.53;4989002;28;20458;-79
2022/11/13 01:36:54;;;;;;;18.03;10.20;;;;;;;8.81;85.52;101430.38;4985754;28;20415;-79
2022/11/13 01:39:19;;;;;;;11.60;10.27;;;;;;;8.80;86.21;101417.88;4991772;28;20881;-79
2022/11/13 01:41:44;;;;;;;16.30;10.43;;;;;;;8.82;86.29;101419.34;4995669;28;20417;-79
2022/11/13 01:44:12;;;;;;;17.80;9.77;;;;;;;8.84;86.06;101417.28;4983656;28;21037;-79
2022/11/13 01:46:42;;;;;;;22.52;9.75;;;;;;;8.85;85.86;101410.84;4985241;28;20873;-79
2022/11/13 01:49:08;;;;;;;16.30;10.07;;;;;;;8.83;85.41;101409.34;4982562;28;20415;-80
2022/11/13 01:51:41;;;;;;;19.00;10.40;;;;;;;8.81;84.98;101406.03;4993839;28;20759;-79
2022/11/13 01:54:11;;;;;;;13.68;9.63;;;;;;;8.72;85.36;101402.75;4993206;28;20405;-79
2022/11/13 01:56:38;;;;;;;11.18;9.98;;;;;;;8.73;85.56;101398.97;4995470;28;20403;-79
2022/11/13 01:59:09;;;;;;;15.57;10.60;;;;;;;8.76;85.74;101397.72;4994817;28;20433;-79
2022/11/13 02:01:35;;;;;;;12.90;10.30;;;;;;;8.78;85.53;101398.38;4989888;28;20784;-79
2022/11/13 02:04:00;;;;;;;36.37;10.90;;;;;;;8.76;85.70;101395.84;5000239;28;20415;-79
2022/11/13 02:06:31;;;;;;;12.93;10.10;;;;;;;8.73;85.47;101398.16;4986561;28;20478;-79
2022/11/13 02:08:57;;;;;;;11.57;9.80;;;;;;;8.75;86.04;101393.38;4987697;28;20906;-79
2022/11/13 02:11:22;;;;;;;20.40;9.47;;;;;;;8.77;85.47;101394.00;4982767;28;20423;-79
2022/11/13 02:13:50;;;;;;;12.50;9.18;;;;;;;8.73;85.21;101390.03;4990850;28;20402;-79
2022/11/13 02:16:17;;;;;;;23.83;8.80;;;;;;;8.68;85.40;101389.84;4989881;28;20411;-79
2022/11/13 02:18:42;;;;;;;40.58;9.73;;;;;;;8.61;85.14;101389.84;4989515;28;20445;-79
2022/11/13 02:21:16;;;;;;;10.80;9.23;;;;;;;8.59;85.45;101391.13;4987136;28;20405;-79
2022/11/13 02:23:45;;;;;;;22.75;8.90;;;;;;;8.62;85.06;101393.41;5001014;28;20400;-79
2022/11/13 02:26:11;;;;;;;15.10;9.23;;;;;;;8.59;85.25;101388.41;4996271;28;20454;-79
2022/11/13 02:28:36;;;;;;;30.13;9.43;;;;;;;8.57;84.98;101385.06;5008770;28;20775;-79
2022/11/13 02:31:10;;;;;;;11.80;8.63;;;;;;;8.57;85.27;101395.88;5002452;28;20428;-79
2022/11/13 02:33:35;;;;;;;10.88;9.15;;;;;;;8.53;85.55;101389.25;5002262;28;20907;-79
2022/11/13 02:36:01;;;;;;;14.20;9.63;;;;;;;8.56;84.92;101380.72;5001106;28;20402;-79
2022/11/13 02:38:27;;;;;;;15.00;9.50;;;;;;;8.61;84.93;101383.63;4985262;28;20441;-79
2022/11/13 02:40:52;;;;;;;16.17;10.02;;;;;;;8.53;85.12;101381.94;4993494;28;20413;-79
2022/11/13 02:43:17;;;;;;;15.03;9.90;;;;;;;8.58;84.65;101382.16;4993504;28;20422;-79
2022/11/13 02:45:43;;;;;;;10.50;9.27;;;;;;;8.61;84.77;101375.50;4997865;28;20451;-79
2022/11/13 02:48:08;;;;;;;11.80;9.53;;;;;;;8.58;84.93;101378.63;4989505;28;20414;-79
2022/11/13 02:50:35;;;;;;;11.33;10.10;;;;;;;8.59;84.73;101375.75;4992016;28;20435;-79
2022/11/13 02:53:00;;;;;;;11.65;10.20;;;;;;;8.60;84.75;101380.09;4998986;28;20411;-79
2022/11/13 02:55:26;;;;;;;11.43;9.82;;;;;;;8.62;84.05;101369.91;4997113;28;20396;-79
2022/11/13 02:57:51;;;;;;;11.20;10.00;;;;;;;8.60;84.44;101358.47;4986972;28;20432;-79
2022/11/13 03:00:17;;;;;;;12.87;10.20;;;;;;;8.59;84.29;101361.41;4991904;28;20464;-79
2022/11/13 03:02:42;;;;;;;10.80;9.48;;;;;;;8.57;84.61;101358.88;5024595;28;20895;-79
2022/11/13 03:05:08;;;;;;;11.00;9.70;;;;;;;8.58;84.21;101365.13;4997377;28;20404;-78
2022/11/13 03:07:34;;;;;;;10.52;9.50;;;;;;;8.58;84.25;101365.97;4979937;28;20417;-79
2022/11/13 03:09:59;;;;;;;11.73;10.53;;;;;;;8.54;84.17;101367.41;4986307;28;20759;-79
2022/11/13 03:12:24;;;;;;;11.50;10.00;;;;;;;8.55;84.09;101365.53;4990179;28;20408;-79
2022/11/13 03:14:50;;;;;;;11.13;9.93;;;;;;;8.56;83.67;101356.41;4986088;28;20405;-79
2022/11/13 03:17:15;;;;;;;11.43;10.23;;;;;;;8.54;83.93;101356.59;5025294;28;20419;-79
2022/11/13 03:19:40;;;;;;;12.40;10.27;;;;;;;8.56;83.75;101356.41;4988855;28;20419;-79
2022/11/13 03:22:05;;;;;;;11.90;10.70;;;;;;;8.56;83.79;101342.91;4991503;28;20404;-79
2022/11/13 03:24:31;;;;;;;12.77;10.35;;;;;;;8.57;83.94;101339.97;5003995;28;20396;-79
2022/11/13 03:26:56;;;;;;;12.80;10.67;;;;;;;8.59;83.41;101345.19;4989030;28;20893;-79
2022/11/13 03:29:21;;;;;;;11.90;10.37;;;;;;;8.59;83.67;101335.22;4995355;28;20781;-79
2022/11/13 03:31:46;;;;;;;13.17;10.87;;;;;;;8.56;84.05;101329.41;4997426;28;20400;-79
2022/11/13 03:34:12;;;;;;;11.80;10.33;;;;;;;8.58;83.85;101338.94;4988698;28;20402;-79
2022/11/13 03:36:37;;;;;;;11.87;10.67;;;;;;;8.56;83.74;101321.28;4986257;28;20499;-79
2022/11/13 03:39:03;;;;;;;12.97;10.53;;;;;;;8.56;83.58;101326.69;4990429;28;20841;-79
2022/11/13 03:41:28;;;;;;;14.10;11.55;;;;;;;8.53;83.99;101327.91;4987053;28;20495;-79
2022/11/13 03:43:53;;;;;;;11.83;10.63;;;;;;;8.52;83.82;101322.75;4996467;28;20464;-79
2022/11/13 03:46:18;;;;;;;13.60;11.13;;;;;;;8.51;83.19;101327.31;4986113;28;20504;-79
2022/11/13 03:48:44;;;;;;;13.23;11.30;;;;;;;8.47;83.32;101330.63;4995577;28;20425;-79
2022/11/13 03:51:09;;;;;;;12.25;10.48;;;;;;;8.46;83.37;101327.13;4993953;28;20418;-79
2022/11/13 03:53:34;;;;;;;12.07;10.77;;;;;;;8.47;83.67;101333.34;4996145;28;20410;-79
2022/11/13 03:56:00;;;;;;;12.93;10.60;;;;;;;8.49;83.08;101331.28;4993695;28;20408;-79
2022/11/13 03:58:25;;;;;;;12.57;10.70;;;;;;;8.43;82.69;101316.72;4985199;28;20408;-79
2022/11/13 04:00:53;;;;;;;12.20;10.83;;;;;;;8.40;83.50;101325.25;4999055;28;20452;-79
2022/11/13 04:03:19;;;;;;;11.70;10.40;;;;;;;8.46;83.09;101320.88;4991672;28;20953;-79
2022/11/13 04:05:47;;;;;;;15.73;11.07;;;;;;;8.49;82.86;101328.56;4988187;28;20416;-79
2022/11/13 04:08:13;;;;;;;12.27;10.75;;;;;;;8.47;83.03;101322.53;4985494;28;20453;-79
2022/11/13 04:10:38;;;;;;;13.18;10.63;;;;;;;8.41;82.84;101317.97;4988540;28;20886;-79
2022/11/13 04:13:03;;;;;;;12.40;10.90;;;;;;;8.36;83.17;101312.38;4992546;28;20436;-80
2022/11/13 04:15:29;;;;;;;13.67;10.80;;;;;;;8.35;83.52;101319.66;4999550;28;20956;-79
2022/11/13 04:17:54;;;;;;;11.70;10.43;;;;;;;8.38;83.18;101313.00;4988841;28;20423;-79
2022/11/13 04:20:19;;;;;;;12.33;10.87;;;;;;;8.40;82.93;101303.63;5030884;28;20576;-79
2022/11/13 04:22:45;;;;;;;11.73;10.53;;;;;;;8.40;82.79;101313.63;5030933;28;20484;-79
2022/11/13 04:25:10;;;;;;;11.97;10.77;;;;;;;8.40;82.53;101308.22;5007998;28;20413;-79
2022/11/13 04:27:35;;;;;;;11.57;10.20;;;;;;;8.37;82.83;101308.63;4990249;28;20413;-79
2022/11/13 04:30:02;;;;;;;12.13;10.20;;;;;;;8.38;83.09;101304.88;4988806;28;20412;-79
2022/11/13 04:32:27;;;;;;;11.20;9.98;;;;;;;8.39;83.13;101301.16;4988598;28;20485;-79
2022/11/13 04:34:53;;;;;;;10.63;9.60;;;;;;;8.37;82.87;101297.81;4988186;28;20500;-79
2022/11/13 04:37:18;;;;;;;13.37;10.20;;;;;;;8.37;83.24;101301.34;4990307;28;21697;-79
2022/11/13 04:39:43;;;;;;;12.63;10.43;;;;;;;8.34;82.52;101302.63;4986517;28;20537;-79
2022/11/13 04:44:54;;;;;;;11.53;10.40;;;;;;;8.33;82.96;101298.25;4991808;28;20467;-79
2022/11/13 04:47:19;;;;;;;10.30;9.13;;;;;;;8.37;82.55;101293.25;4990404;28;20406;-79
2022/11/13 04:49:45;;;;;;;10.93;9.83;;;;;;;8.36;82.54;101288.91;4994699;28;20406;-79
2022/11/13 04:52:10;;;;;;;12.97;10.83;;;;;;;8.33;82.61;101287.44;4989341;28;20867;-79
2022/11/13 04:54:35;;;;;;;11.17;10.00;;;;;;;8.29;82.20;101286.22;4999322;28;20417;-79
2022/11/13 04:57:01;;;;;;;10.37;9.30;;;;;;;8.28;82.39;101286.41;4997424;28;20407;-79
2022/11/13 04:59:26;;;;;;;11.20;10.00;;;;;;;8.29;82.66;101285.38;4989778;28;20509;-79
2022/11/13 05:01:52;;;;;;;11.17;10.07;;;;;;;8.31;82.47;101286.81;4989588;28;20781;-79
2022/11/13 05:04:17;;;;;;;12.73;11.00;;;;;;;8.34;82.44;101285.56;4988491;28;20414;-79
2022/11/13 05:06:42;;;;;;;10.77;9.63;;;;;;;8.32;82.78;101282.25;5026744;28;21023;-79
2022/11/13 05:09:07;;;;;;;12.00;10.47;;;;;;;8.31;82.57;101269.78;4995089;28;21143;-79
2022/11/13 05:11:33;;;;;;;10.50;9.43;;;;;;;8.30;82.43;101266.25;4993765;28;20418;-79
2022/11/13 05:13:58;;;;;;;10.87;9.57;;;;;;;8.28;82.42;101265.66;5004290;28;20411;-79
2022/11/13 05:16:23;;;;;;;11.40;10.13;;;;;;;8.32;82.25;101263.34;4991789;28;20416;-79
2022/11/13 05:18:49;;;;;;;10.77;9.63;;;;;;;8.32;82.50;101261.50;5001279;28;20404;-79
2022/11/13 05:21:14;;;;;;;11.40;10.23;;;;;;;8.32;82.20;101258.78;5005834;28;20431;-79
2022/11/13 05:23:40;;;;;;;12.33;10.10;;;;;;;8.29;81.97;101261.09;4999161;28;20483;-79
2022/11/13 05:26:09;;;;;;;11.80;10.30;;;;;;;8.27;81.98;101253.16;4988066;28;20422;-79
2022/11/13 05:28:35;;;;;;;11.80;9.98;;;;;;;8.24;82.30;101247.34;4995270;28;20434;-79
2022/11/13 05:31:15;;;;;;;10.90;9.80;;;;;;;8.21;82.57;101245.06;4997967;28;20449;-78
2022/11/13 05:33:41;;;;;;;12.00;10.07;;;;;;;8.23;81.85;101243.78;5029786;28;20404;-79
2022/11/13 05:36:10;;;;;;;13.02;10.48;;;;;;;8.25;81.71;101240.91;5001754;28;20504;-79
2022/11/13 05:38:36;;;;;;;11.20;10.00;;;;;;;8.23;81.67;101234.91;5006890;28;20445;-79
2022/11/13 05:41:06;;;;;;;10.80;9.70;;;;;;;8.21;82.09;101239.66;5010081;28;20397;-78
2022/11/13 05:43:32;;;;;;;11.23;10.10;;;;;;;8.21;81.84;101234.25;5008091;28;20467;-79
2022/11/13 05:46:11;;;;;;;11.18;10.07;;;;;;;8.23;81.54;101240.28;5003209;28;20500;-79
2022/11/13 05:48:37;;;;;;;11.45;10.07;;;;;;;8.20;82.23;101236.13;5002035;28;20495;-79
2022/11/13 05:51:05;;;;;;;11.07;9.97;;;;;;;8.21;81.81;101231.56;4995509;28;20505;-78
2022/11/13 05:53:32;;;;;;;10.75;9.70;;;;;;;8.21;81.80;101236.94;5025858;28;20408;-78
2022/11/13 05:56:18;;;;;;;10.25;9.10;;;;;;;8.20;81.42;101228.03;4995285;28;20409;-78
2022/11/13 05:58:44;;;;;;;12.07;9.50;;;;;;;8.19;81.70;101229.09;4994292;28;20726;-78
2022/11/13 06:01:30;;;;;;;9.98;8.98;;;;;;;8.18;81.39;101223.88;5001608;28;20409;-79
2022/11/13 06:03:57;;;;;;;16.55;9.75;;;;;;;8.20;81.95;101225.31;5001989;28;20412;-79
2022/11/13 06:06:23;;;;;;;11.18;9.68;;;;;;;8.23;81.61;101216.00;4991001;28;20465;-79
2022/11/13 06:08:50;;;;;;;13.98;9.82;;;;;;;8.25;81.10;101211.19;4984552;28;20425;-79
2022/11/13 06:11:19;;;;;;;9.55;8.52;;;;;;;8.24;81.21;101213.06;4985432;28;21015;-79
2022/11/13 06:13:45;;;;;;;11.50;9.50;;;;;;;8.22;80.92;101217.84;4993791;28;20401;-79
2022/11/13 06:16:16;;;;;;;9.95;8.95;;;;;;;8.17;81.08;101212.25;4987789;28;20938;-79
2022/11/13 06:18:42;;;;;;;10.15;9.15;;;;;;;8.20;81.24;101219.13;4992454;28;20417;-79
2022/11/13 06:21:20;;;;;;;10.90;9.80;;;;;;;8.22;81.10;101212.47;4994351;28;20990;-79
2022/11/13 06:23:45;;;;;;;10.80;9.60;;;;;;;8.20;80.90;101206.41;4992767;28;20737;-78
2022/11/13 06:26:23;;;;;;;12.85;10.60;;;;;;;8.17;80.83;101206.84;4981090;28;20458;-79
2022/11/13 06:28:48;;;;;;;14.23;10.48;;;;;;;8.19;80.71;101198.53;4992958;28;20476;-79
2022/11/13 06:31:20;;;;;;;12.13;9.67;;;;;;;8.22;80.91;101200.81;4998688;28;20420;-79
2022/11/13 06:33:46;;;;;;;12.40;11.10;;;;;;;8.19;81.12;101199.38;4991426;28;20411;-79
2022/11/13 06:36:16;;;;;;;12.97;11.27;;;;;;;8.21;80.68;101200.00;4985494;28;20416;-79
2022/11/13 06:38:42;;;;;;;10.63;9.45;;;;;;;8.24;81.02;101194.16;4996065;28;20414;-79
2022/11/13 06:41:10;;;;;;;10.10;9.10;;;;;;;8.22;80.49;101187.31;4999236;28;20942;-79
2022/11/13 06:43:35;;;;;;;10.32;9.02;;;;;;;8.19;80.55;101199.38;4978662;28;20411;-79
2022/11/13 06:46:06;;;;;;;10.37;9.20;;;;;;;8.21;80.87;101191.88;4985155;28;20463;-79
2022/11/13 06:48:32;;;;;;;9.40;8.40;;;;;;;8.21;80.96;101199.16;4993147;28;20460;-79
2022/11/13 06:51:02;;;;;;;11.57;10.07;;;;;;;8.22;80.82;101201.66;4983469;28;20842;-79
2022/11/13 06:53:29;;;;;;;13.75;10.48;;;;;;;8.22;80.96;101195.41;4974888;28;20496;-79
2022/11/13 06:55:54;;;;;;;10.73;9.50;;;;;;;8.26;80.22;101196.66;4972646;28;20419;-78
2022/11/13 06:58:22;;;;;;;9.93;8.93;;;;;;;8.25;80.42;101195.00;4969883;28;20472;-78
2022/11/13 07:00:47;;;;;;;9.80;8.90;;;;;;;8.24;80.75;101188.75;4975012;28;20430;-77
2022/11/13 07:03:17;;;;;;;10.83;9.33;;;;;;;8.29;79.88;101186.31;4974869;28;20498;-77
2022/11/13 07:05:42;;;;;;;11.82;9.43;;;;;;;8.30;80.30;101179.00;4972178;28;20487;-78
2022/11/13 07:08:07;;;;;;;10.30;9.30;;;;;;;8.29;79.95;101186.31;4971891;28;20982;-78
2022/11/13 07:10:36;;;;;;;10.68;9.20;;;;;;;8.27;80.01;101184.81;4974483;28;20411;-79
2022/11/13 07:13:01;;;;;;;10.60;9.50;;;;;;;8.22;80.00;101184.63;4976583;28;20414;-78
2022/11/13 07:15:26;;;;;;;10.57;9.07;;;;;;;8.24;79.67;101180.66;4977530;28;20413;-80
2022/11/13 07:17:52;;;;;;;10.57;9.53;;;;;;;8.27;79.73;101184.81;5007974;28;20411;-78
2022/11/13 07:20:17;;;;;;;10.53;8.87;;;;;;;8.25;80.18;101181.50;4977973;28;20917;-77
2022/11/13 07:22:43;;;;;;;11.20;9.97;;;;;;;8.23;80.00;101192.50;4998564;28;20823;-77
2022/11/13 07:25:08;;;;;;;10.43;9.30;;;;;;;8.25;79.68;101189.59;4976439;28;20495;-79
2022/11/13 07:27:33;;;;;;;10.23;9.13;;;;;;;8.25;79.76;101181.50;4973933;28;20420;-79
2022/11/13 07:29:59;;;;;;;9.95;9.05;;;;;;;8.25;79.40;101185.03;4975953;28;20495;-77
2022/11/13 07:32:25;;;;;;;11.07;9.57;;;;;;;8.27;79.85;101176.69;4975714;28;20695;-80
2022/11/13 07:34:50;;;;;;;10.67;9.53;;;;;;;8.28;79.43;101167.59;4993538;28;20935;-81
2022/11/13 07:37:16;;;;;;;11.03;9.87;;;;;;;8.25;79.21;101163.44;4983267;28;20405;-81
2022/11/13 07:39:41;;;;;;;9.90;9.00;;;;;;;8.27;79.32;101165.91;4978806;28;20414;-81
2022/11/13 07:42:06;;;;;;;10.03;9.03;;;;;;;8.28;79.68;101165.72;4974102;28;20400;-80
2022/11/13 07:44:32;;;;;;;10.37;9.27;;;;;;;8.29;79.50;101166.56;4987824;28;20475;-80
2022/11/13 07:46:57;;;;;;;9.88;8.55;;;;;;;8.27;79.36;101163.19;4978718;28;20467;-79
2022/11/13 07:49:22;;;;;;;10.20;9.20;;;;;;;8.23;79.07;101162.78;4979402;28;20404;-80
2022/11/13 07:51:47;;;;;;;9.95;8.65;;;;;;;8.23;78.74;101149.28;4993556;28;20972;-80
2022/11/13 07:54:13;;;;;;;10.60;9.03;;;;;;;8.23;78.75;101159.28;4989835;28;20407;-80
2022/11/13 07:56:38;;;;;;;10.47;9.40;;;;;;;8.21;78.61;101156.78;4997479;28;20585;-80
2022/11/13 07:59:04;;;;;;;10.73;9.10;;;;;;;8.22;78.69;101149.53;4994782;28;20426;-80
2022/11/13 08:01:29;;;;;;;9.43;8.47;;;;;;;8.27;78.82;101136.19;4980249;28;20488;-80
2022/11/13 08:03:54;;;;;;;9.60;8.60;;;;;;;8.33;78.38;101146.19;4997382;28;20410;-79
2022/11/13 08:06:19;;;;;;;9.13;8.30;;;;;;;8.33;78.55;101147.00;5002676;28;20405;-80
2022/11/13 08:08:46;;;;;;;9.73;8.73;;;;;;;8.39;78.57;101144.50;4996510;28;20463;-79
2022/11/13 08:11:12;;;;;;;9.82;8.85;;;;;;;8.40;78.31;101143.47;4989791;28;20464;-79
2022/11/13 08:13:37;;;;;;;9.47;8.57;;;;;;;8.39;78.57;101152.59;4970088;28;20421;-79
2022/11/13 08:16:04;;;;;;;10.23;9.23;;;;;;;8.37;78.71;101144.72;4995264;28;20897;-80
2022/11/13 08:18:30;;;;;;;10.45;9.15;;;;;;;8.44;78.18;101145.50;4992823;28;20411;-79
2022/11/13 08:20:56;;;;;;;10.18;8.95;;;;;;;8.48;77.95;101141.34;4986121;28;20513;-79
2022/11/13 08:23:22;;;;;;;9.52;8.48;;;;;;;8.48;77.76;101145.91;5006350;28;20510;-78
2022/11/13 08:25:47;;;;;;;8.93;8.10;;;;;;;8.49;78.09;101139.47;4993239;28;20433;-79
2022/11/13 08:28:13;;;;;;;8.83;8.03;;;;;;;8.55;78.01;101141.31;4998682;28;20409;-79
2022/11/13 08:30:41;;;;;;;9.27;8.20;;;;;;;8.59;77.72;101140.69;4993362;28;20423;-79
2022/11/13 08:33:06;;;;;;;9.27;8.25;;;;;;;8.62;76.99;101134.03;4995038;28;20760;-80
2022/11/13 08:35:32;;;;;;;10.13;9.13;;;;;;;8.58;76.98;101120.09;5004062;28;20489;-79
2022/11/13 08:38:05;;;;;;;10.63;9.40;;;;;;;8.63;77.56;101124.84;4991331;28;20401;-80
2022/11/13 08:40:30;;;;;;;10.60;8.70;;;;;;;8.70;77.32;101129.19;4989559;28;20477;-79
2022/11/13 08:43:00;;;;;;;10.63;9.63;;;;;;;8.68;77.10;101133.97;4990869;28;20499;-80
2022/11/13 08:45:27;;;;;;;9.70;8.70;;;;;;;8.68;77.16;101127.75;4988561;28;20414;-81
2022/11/13 08:47:52;;;;;;;9.05;8.25;;;;;;;8.72;77.26;101127.09;4983410;28;20887;-81
2022/11/13 08:50:17;;;;;;;9.80;8.73;;;;;;;8.75;76.79;101129.38;4990809;28;20460;-82
2022/11/13 08:52:43;;;;;;;8.68;7.88;;;;;;;8.74;76.41;101129.56;4991420;28;20418;-79
2022/11/13 08:55:08;;;;;;;8.47;7.77;;;;;;;8.76;76.32;101122.91;4992593;28;20437;-80
2022/11/13 08:57:33;;;;;;;8.57;7.77;;;;;;;8.76;76.54;101125.59;4991629;28;20417;-76
2022/11/13 08:59:58;;;;;;;9.00;8.20;;;;;;;8.76;76.10;101109.38;4994086;28;20416;-78
2022/11/13 09:02:24;;;;;;;9.27;8.30;;;;;;;8.84;75.69;101106.44;5011936;28;20753;-79
2022/11/13 09:04:49;;;;;;;8.75;7.95;;;;;;;8.90;76.25;101099.31;4986788;28;20749;-79
2022/11/13 09:07:14;;;;;;;9.07;7.90;;;;;;;8.94;75.80;101097.84;5018932;28;20488;-82
2022/11/13 09:09:40;;;;;;;8.10;7.30;;;;;;;9.03;75.50;101095.69;4981777;28;20917;-79
2022/11/13 09:12:05;;;;;;;8.47;7.67;;;;;;;9.04;75.03;101091.97;4997473;28;20438;-79
2022/11/13 09:14:30;;;;;;;8.50;7.70;;;;;;;9.10;74.95;101088.38;4998402;28;20877;-78
2022/11/13 09:16:56;;;;;;;9.17;8.23;;;;;;;9.20;74.71;101081.44;4992605;28;20617;-79
2022/11/13 09:19:21;;;;;;;8.23;7.43;;;;;;;9.21;74.63;101083.09;4988250;28;20483;-78
2022/11/13 09:21:47;;;;;;;10.13;8.60;;;;;;;9.20;73.93;101075.19;4993294;28;20418;-80
2022/11/13 09:24:12;;;;;;;8.00;7.30;;;;;;;9.15;73.90;101078.56;5000317;28;20411;-79
2022/11/13 09:26:37;;;;;;;12.60;8.90;;;;;;;9.10;74.13;101096.47;4991497;28;20409;-79
2022/11/13 09:29:02;;;;;;;9.17;8.27;;;;;;;9.06;74.07;101082.56;4991420;28;20920;-79
2022/11/13 09:31:28;;;;;;;9.97;8.97;;;;;;;9.14;74.55;101085.03;4993177;28;20472;-79
2022/11/13 09:33:53;;;;;;;7.60;7.00;;;;;;;9.23;73.93;101074.75;4991272;28;20797;-78
2022/11/13 09:36:19;;;;;;;8.03;7.20;;;;;;;9.27;74.27;101068.69;4994487;28;20394;-79
2022/11/13 09:38:44;;;;;;;7.87;7.17;;;;;;;9.50;73.54;101072.63;4997564;28;20824;-79
2022/11/13 09:41:16;;;;;;;7.57;6.87;;;;;;;9.74;72.23;101060.94;4996578;28;20775;-80
2022/11/13 09:43:46;;;;;;;7.90;7.17;;;;;;;9.50;72.68;101065.34;4995519;28;20426;-79
2022/11/13 09:46:21;;;;;;;13.48;10.60;;;;;;;9.82;71.64;101071.47;4996045;28;20406;-79
2022/11/13 09:49:01;;;;;;;12.95;10.20;;;;;;;10.15;70.61;101082.78;4992929;28;20400;-79
2022/11/13 09:51:33;;;;;;;7.72;6.93;;;;;;;9.89;70.95;101075.75;5004860;28;20467;-79
2022/11/13 09:54:04;;;;;;;7.15;6.55;;;;;;;10.25;70.49;101074.09;4997439;28;20456;-79
2022/11/13 09:56:36;;;;;;;7.20;6.60;;;;;;;10.16;70.37;101067.34;5001215;28;20883;-79
2022/11/13 09:59:27;;;;;;;8.00;7.30;;;;;;;10.11;71.26;101062.56;5008492;28;20401;-79
2022/11/13 10:02:27;;;;;;;7.60;6.90;;;;;;;10.09;71.43;101069.28;4995334;28;20964;-80
2022/11/13 10:05:08;;;;;;;7.03;6.43;;;;;;;10.18;71.34;101063.34;4988063;28;20414;-79
2022/11/13 10:07:56;;;;;;;7.45;6.75;;;;;;;10.23;70.99;101055.38;5002100;28;20897;-80
2022/11/13 10:10:48;;;;;;;6.97;6.38;;;;;;;10.32;70.57;101042.34;4990090;28;20525;-79
2022/11/13 10:13:20;;;;;;;6.72;6.13;;;;;;;10.53;69.63;101044.56;4993366;28;20410;-79
2022/11/13 10:15:49;;;;;;;7.10;6.50;;;;;;;10.43;70.00;101046.16;4993946;28;20413;-80
2022/11/13 10:18:33;;;;;;;6.68;5.97;;;;;;;10.26;70.34;101030.56;4992640;28;20397;-79
2022/11/13 10:21:37;;;;;;;6.93;6.32;;;;;;;10.09;70.37;101028.66;4994807;28;20406;-79
2022/11/13 10:24:14;;;;;;;7.22;6.60;;;;;;;9.95;70.93;101010.91;5002525;28;20913;-79
2022/11/13 10:26:39;;;;;;;7.60;6.88;;;;;;;9.90;71.28;101028.69;4996031;28;20434;-78
2022/11/13 10:29:24;;;;;;;7.53;6.80;;;;;;;9.84;71.20;101032.31;4992901;28;20429;-79
2022/11/13 10:31:51;;;;;;;7.50;6.80;;;;;;;9.76;71.78;101023.66;4997532;28;20810;-78
2022/11/13 10:34:17;;;;;;;7.65;6.85;;;;;;;9.71;72.09;101010.81;4996552;28;20908;-79
2022/11/13 10:37:27;;;;;;;7.40;6.45;;;;;;;9.73;72.10;101002.44;5002211;28;20419;-80
2022/11/13 10:39:55;;;;;;;7.03;6.43;;;;;;;9.70;72.56;101003.72;5020545;28;20495;-79
2022/11/13 10:42:30;;;;;;;7.53;6.82;;;;;;;9.69;72.68;100990.41;4995047;28;20484;-80
2022/11/13 10:44:59;;;;;;;7.90;6.40;;;;;;;9.69;72.65;100985.00;4993938;28;20462;-79
2022/11/13 10:47:31;;;;;;;7.70;7.00;;;;;;;9.68;72.81;100986.88;4996375;28;20394;-80
2022/11/13 10:50:08;;;;;;;7.53;6.82;;;;;;;9.70;72.80;100983.94;4996449;28;20405;-79
2022/11/13 10:52:33;;;;;;;7.97;6.55;;;;;;;9.74;73.14;100980.56;4997418;28;20753;-80
2022/11/13 10:55:19;;;;;;;7.17;6.50;;;;;;;9.73;73.16;100973.50;5000332;28;20402;-80
2022/11/13 10:57:54;;;;;;;7.35;6.60;;;;;;;9.72;73.16;100968.31;4992017;28;20426;-79
2022/11/13 11:00:22;;;;;;;7.75;6.82;;;;;;;9.70;73.12;100971.25;4998696;28;20794;-79
2022/11/13 11:02:48;;;;;;;18.73;9.48;;;;;;;9.70;73.00;100965.00;4998574;28;20916;-80
2022/11/13 11:05:22;;;;;;;14.23;8.60;;;;;;;9.70;73.26;100957.72;5001525;28;20418;-80
2022/11/13 11:07:47;;;;;;;10.00;6.95;;;;;;;9.74;73.35;100952.69;5002015;28;20412;-79
2022/11/13 11:10:26;;;;;;;8.43;7.20;;;;;;;9.75;73.18;100941.63;5029800;28;20419;-80
2022/11/13 11:12:58;;;;;;;8.77;6.60;;;;;;;9.80;73.25;100940.94;5000802;28;20410;-79
2022/11/13 11:15:31;;;;;;;7.45;6.68;;;;;;;9.80;73.42;100935.53;4999586;28;20408;-79
2022/11/13 11:18:02;;;;;;;7.43;6.63;;;;;;;9.84;73.63;100942.16;5001419;28;20402;-79
2022/11/13 11:20:42;;;;;;;9.93;7.65;;;;;;;9.85;73.44;100932.94;5002004;28;20410;-78
2022/11/13 11:23:32;;;;;;;8.07;7.28;;;;;;;9.88;73.93;100930.63;5005052;28;20492;-80
2022/11/13 11:26:02;;;;;;;11.35;8.95;;;;;;;9.94;73.94;100931.59;5007778;28;20962;-79
2022/11/13 11:28:48;;;;;;;7.43;6.60;;;;;;;9.99;73.56;100926.31;5026582;28;20918;-79
2022/11/13 11:31:51;;;;;;;10.63;7.63;;;;;;;10.00;73.45;100925.25;5010038;28;20523;-80